createdAt,value
2023-04-24T00:01:17.700Z,49.25
2023-04-24T00:06:22.971Z,53.00
2023-04-24T00:11:28.146Z,54.25
2023-04-24T00:16:33.266Z,56.50
2023-04-24T00:21:37.949Z,59.50
2023-04-24T00:26:42.924Z,67.75
2023-04-24T00:31:48.390Z,59.50
2023-04-24T00:36:54.533Z,68.00
2023-04-24T00:42:00.026Z,63.50
2023-04-24T00:47:05.942Z,64.75
2023-04-24T00:52:11.448Z,55.75
2023-04-24T00:57:17.702Z,56.00
2023-04-24T01:02:25.038Z,53.75
2023-04-24T01:07:30.146Z,55.25
2023-04-24T01:12:36.052Z,53.25
2023-04-24T01:17:41.609Z,53.75
2023-04-24T01:22:46.506Z,51.50
2023-04-24T01:27:53.651Z,56.75
2023-04-24T01:32:58.966Z,59.75
2023-04-24T01:38:04.213Z,59.50
2023-04-24T01:43:09.742Z,59.50
2023-04-24T01:48:15.517Z,58.75
2023-04-24T01:53:20.507Z,55.00
2023-04-24T01:58:25.573Z,56.75
2023-04-24T02:03:31.023Z,53.25
2023-04-24T02:08:36.353Z,57.50
2023-04-24T02:13:41.184Z,52.50
2023-04-24T02:18:46.704Z,49.00
2023-04-24T02:23:51.631Z,46.50
2023-04-24T02:28:56.627Z,50.25
2023-04-24T02:34:02.618Z,48.75
2023-04-24T02:39:07.729Z,50.25
2023-04-24T02:44:12.653Z,48.25
2023-04-24T02:49:17.802Z,47.75
2023-04-24T02:54:22.806Z,48.25
2023-04-24T02:59:29.490Z,49.25
2023-04-24T03:04:34.661Z,47.50
2023-04-24T03:09:39.473Z,45.50
2023-04-24T03:14:44.564Z,45.25
2023-04-24T03:19:49.445Z,42.50
2023-04-24T03:24:57.011Z,40.50
2023-04-24T03:30:03.288Z,39.00
2023-04-24T03:35:19.243Z,46.50
2023-04-24T03:40:24.768Z,41.75
2023-04-24T03:45:29.554Z,50.50
2023-04-24T03:50:35.072Z,49.50
2023-04-24T03:55:40.372Z,46.75
2023-04-24T04:00:46.951Z,47.75
2023-04-24T04:06:21.911Z,48.00
2023-04-24T04:11:28.929Z,49.25
2023-04-24T04:16:33.831Z,47.00
2023-04-24T04:21:40.846Z,46.50
2023-04-24T04:27:02.906Z,44.75
2023-04-24T04:32:14.817Z,51.25
2023-04-24T04:37:19.879Z,47.00
2023-04-24T04:42:42.729Z,39.00
2023-04-24T04:47:48.243Z,44.75
2023-04-24T04:52:53.526Z,47.50
2023-04-24T04:58:05.254Z,40.50
2023-04-24T05:03:20.725Z,41.25
2023-04-24T05:08:33.969Z,42.00
2023-04-24T05:13:41.460Z,37.75
2023-04-24T05:18:51.818Z,35.00
2023-04-24T05:24:01.455Z,40.75
2023-04-24T05:29:42.535Z,35.00
2023-04-24T05:34:48.555Z,27.75
2023-04-24T05:39:53.508Z,36.50
2023-04-24T05:44:58.649Z,30.00
2023-04-24T05:50:04.569Z,30.75
2023-04-24T05:55:09.969Z,31.00
2023-04-24T06:00:20.183Z,29.75
2023-04-24T06:05:35.626Z,36.00
2023-04-24T06:10:40.939Z,26.25
2023-04-24T06:15:47.638Z,34.25
2023-04-24T06:21:02.948Z,27.25
2023-04-24T06:26:08.384Z,28.75
2023-04-24T06:31:13.605Z,29.50
2023-04-24T06:36:18.830Z,27.75
2023-04-24T06:41:24.751Z,27.00
2023-04-24T06:46:31.256Z,29.50
2023-04-24T06:51:36.308Z,24.50
2023-04-24T06:56:41.230Z,28.75
2023-04-24T07:01:46.177Z,28.50
2023-04-24T07:06:55.084Z,23.00
2023-04-24T07:12:00.086Z,26.75
2023-04-24T07:17:06.232Z,26.25
2023-04-24T07:22:11.299Z,23.75
2023-04-24T07:27:17.210Z,27.75
2023-04-24T07:32:22.204Z,26.00
2023-04-24T07:37:27.185Z,31.75
2023-04-24T07:42:33.341Z,32.50
2023-04-24T07:47:39.563Z,28.00
2023-04-24T07:52:44.747Z,28.00
2023-04-24T07:57:49.710Z,25.50
2023-04-24T08:02:54.636Z,27.50
2023-04-24T08:08:00.309Z,22.50
2023-04-24T08:13:05.527Z,25.25
2023-04-24T08:18:11.744Z,23.50
2023-04-24T08:23:16.752Z,24.00
2023-04-24T08:28:22.744Z,20.25
2023-04-24T08:33:27.833Z,27.50
2023-04-24T08:38:32.970Z,27.25
2023-04-24T08:43:39.261Z,26.00
2023-04-24T08:48:44.482Z,25.50
2023-04-24T08:53:49.750Z,22.00
2023-04-24T08:58:55.852Z,26.00
2023-04-24T09:04:00.756Z,25.25
2023-04-24T09:09:06.028Z,23.25
2023-04-24T09:14:12.637Z,21.25
2023-04-24T09:19:17.888Z,22.25
2023-04-24T09:24:24.974Z,28.75
2023-04-24T09:29:30.135Z,23.50
2023-04-24T09:34:35.157Z,22.50
2023-04-24T09:39:40.085Z,22.50
2023-04-24T09:44:45.106Z,21.25
2023-04-24T09:49:49.977Z,26.00
2023-04-24T09:54:58.137Z,22.25
2023-04-24T10:00:03.140Z,25.50
2023-04-24T10:05:15.587Z,23.50
2023-04-24T10:10:21.910Z,23.75
2023-04-24T10:15:27.150Z,20.00
2023-04-24T10:20:33.268Z,23.75
2023-04-24T10:25:41.907Z,23.50
2023-04-24T10:30:47.491Z,26.25
2023-04-24T10:35:53.888Z,25.00
2023-04-24T10:41:21.976Z,25.75
2023-04-24T10:46:30.968Z,22.25
2023-04-24T10:51:50.004Z,21.00
2023-04-24T10:56:55.448Z,25.25
2023-04-24T11:02:00.222Z,21.25
2023-04-24T11:07:08.271Z,22.75
2023-04-24T11:12:15.239Z,24.75
2023-04-24T11:17:30.345Z,23.25
2023-04-24T11:22:38.892Z,26.00
2023-04-24T11:27:51.018Z,26.25
2023-04-24T11:32:55.889Z,23.50
2023-04-24T11:38:22.751Z,27.50
2023-04-24T11:43:27.696Z,31.00
2023-04-24T11:48:33.200Z,28.75
2023-04-24T11:53:39.482Z,34.25
2023-04-24T11:58:44.353Z,28.00
2023-04-24T12:03:53.456Z,29.75
2023-04-24T12:09:04.766Z,25.00
2023-04-24T12:14:14.848Z,26.25
2023-04-24T12:19:25.894Z,22.25
2023-04-24T12:24:31.048Z,30.75
2023-04-24T12:29:36.077Z,30.75
2023-04-24T12:34:41.014Z,32.25
2023-04-24T12:40:04.143Z,28.50
2023-04-24T12:45:10.509Z,24.75
2023-04-24T12:50:16.891Z,31.00
2023-04-24T12:55:21.912Z,22.50
2023-04-24T13:00:26.785Z,24.50
2023-04-24T13:05:32.509Z,21.25
2023-04-24T13:10:37.862Z,26.75
2023-04-24T13:15:42.712Z,23.25
2023-04-24T13:20:49.779Z,22.25
2023-04-24T13:25:57.812Z,22.00
2023-04-24T13:31:04.126Z,24.00
2023-04-24T13:36:09.668Z,24.25
2023-04-24T13:41:14.892Z,23.00
2023-04-24T13:46:20.256Z,24.75
2023-04-24T13:51:26.152Z,24.50
2023-04-24T13:56:31.161Z,26.50
2023-04-24T14:01:36.413Z,24.75
2023-04-24T14:06:42.306Z,22.25
2023-04-24T14:11:48.544Z,23.75
2023-04-24T14:16:53.712Z,26.75
2023-04-24T14:22:01.652Z,31.25
2023-04-24T14:27:06.483Z,24.25
2023-04-24T14:32:11.515Z,20.25
2023-04-24T14:37:17.586Z,29.75
2023-04-24T14:42:22.434Z,25.00
2023-04-24T14:47:27.399Z,25.50
2023-04-24T14:52:32.508Z,29.00
2023-04-24T14:57:38.430Z,21.75
2023-04-24T15:02:46.754Z,27.75
2023-04-24T15:07:52.458Z,25.75
2023-04-24T15:12:58.497Z,22.50
2023-04-24T15:18:03.593Z,26.75
2023-04-24T15:23:09.122Z,25.25
2023-04-24T15:28:15.784Z,28.75
2023-04-24T15:33:20.751Z,26.75
2023-04-24T15:38:25.738Z,28.00
2023-04-24T15:43:36.657Z,27.25
2023-04-24T15:48:43.423Z,29.25
2023-04-24T15:53:48.945Z,26.00
2023-04-24T15:58:53.980Z,28.50
2023-04-24T16:03:59.030Z,32.75
2023-04-24T16:09:03.960Z,23.75
2023-04-24T16:14:10.570Z,31.25
2023-04-24T16:19:16.531Z,33.50
2023-04-24T16:24:21.525Z,29.75
2023-04-24T16:29:26.641Z,28.00
2023-04-24T16:34:31.509Z,27.75
2023-04-24T16:39:36.971Z,29.00
2023-04-24T16:44:42.305Z,27.50
2023-04-24T16:49:47.388Z,32.50
2023-04-24T16:54:52.898Z,26.25
2023-04-24T16:59:57.857Z,29.75
2023-04-24T17:05:03.103Z,30.75
2023-04-24T17:10:10.631Z,30.25
2023-04-24T17:15:15.925Z,32.00
2023-04-24T17:20:22.672Z,35.25
2023-04-24T17:25:28.212Z,29.50
2023-04-24T17:30:33.180Z,30.00
2023-04-24T17:35:38.092Z,33.50
2023-04-24T17:40:42.961Z,31.00
2023-04-24T17:45:48.094Z,32.00
2023-04-24T17:50:53.125Z,37.50
2023-04-24T17:56:00.701Z,32.00
2023-04-24T18:01:05.558Z,30.75
2023-04-24T18:06:11.446Z,31.50
2023-04-24T18:11:16.287Z,35.75
2023-04-24T18:16:22.237Z,31.75
2023-04-24T18:21:28.056Z,36.25
2023-04-24T18:26:32.890Z,32.25
2023-04-24T18:31:37.766Z,38.50
2023-04-24T18:36:42.654Z,33.00
2023-04-24T18:41:47.556Z,32.50
2023-04-24T18:46:52.536Z,32.50
2023-04-24T18:51:57.876Z,32.50
2023-04-24T18:57:03.345Z,32.25
2023-04-24T19:02:08.576Z,33.75
2023-04-24T19:07:13.648Z,30.75
2023-04-24T19:12:19.215Z,36.75
2023-04-24T19:17:26.532Z,32.75
2023-04-24T19:22:31.684Z,35.00
2023-04-24T19:27:36.642Z,38.00
2023-04-24T19:32:41.692Z,38.00
2023-04-24T19:37:46.679Z,34.50
2023-04-24T19:42:51.535Z,30.25
2023-04-24T19:47:57.953Z,32.25
2023-04-24T19:53:02.716Z,35.00
2023-04-24T19:58:07.705Z,33.25
2023-04-24T20:03:21.552Z,36.00
2023-04-24T20:08:41.246Z,45.00
2023-04-24T20:13:46.219Z,35.25
2023-04-24T20:18:51.499Z,37.75
2023-04-24T20:23:56.381Z,41.50
2023-04-24T20:29:00.790Z,42.50
2023-04-24T20:34:05.753Z,41.25
2023-04-24T20:39:10.961Z,40.50
2023-04-24T20:44:15.544Z,47.00
2023-04-24T20:49:20.581Z,39.25
2023-04-24T20:54:26.487Z,39.25
2023-04-24T20:59:31.699Z,41.75
2023-04-24T21:04:39.326Z,40.25
2023-04-24T21:09:44.374Z,39.00
2023-04-24T21:14:51.044Z,45.25
2023-04-24T21:19:58.993Z,44.25
2023-04-24T21:25:04.372Z,41.25
2023-04-24T21:30:09.786Z,34.75
2023-04-24T21:35:14.639Z,39.75
2023-04-24T21:40:19.702Z,42.50
2023-04-24T21:45:24.782Z,40.00
2023-04-24T21:50:30.120Z,41.00
2023-04-24T21:55:35.248Z,44.75
2023-04-24T22:00:40.356Z,42.00
2023-04-24T22:05:45.374Z,36.75
2023-04-24T22:10:50.839Z,39.75
2023-04-24T22:15:55.706Z,44.25
2023-04-24T22:21:02.334Z,41.00
2023-04-24T22:26:07.908Z,38.25
2023-04-24T22:31:12.803Z,52.75
2023-04-24T22:36:18.296Z,65.75
2023-04-24T22:41:23.662Z,75.25
2023-04-24T22:46:28.589Z,66.75
2023-04-24T22:51:36.724Z,63.50
2023-04-24T22:56:41.716Z,61.00
2023-04-24T23:01:46.653Z,57.00
2023-04-24T23:06:51.831Z,53.50
2023-04-24T23:11:56.884Z,61.00
2023-04-24T23:17:01.785Z,63.00
2023-04-24T23:22:06.780Z,56.25
2023-04-24T23:27:11.849Z,51.00
2023-04-24T23:32:16.930Z,49.75
2023-04-24T23:37:22.257Z,54.25
2023-04-24T23:42:27.108Z,50.75
2023-04-24T23:47:32.357Z,56.00
2023-04-24T23:52:37.497Z,53.75
2023-04-24T23:57:42.493Z,50.50
